Overview Statistics Trail Chart Weather Telemetry Raw packets
 

This is the latest recevied telemetry packets stored in our database for station/object DJ5CM-12. If no packets are shown the sender has not sent any telemetry packets the latest 10 day(s).

Telemetry packets is used to share measurements like repeteater parameters, battery voltage, radiation readings (or any other measurements).

<< 1 2 3 4 >>
Time Press* Temp.in* Hum* QNH* Temp.out*
1777748699 1013.3 hPa 18.6 C deg 43.6 % 1016.1 hPa 0 C deg
1777746880 1013.2 hPa 19.5 C deg 38.7 % 1015.9 hPa 0 C deg
1777745066 1013.1 hPa 20.4 C deg 35.9 % 1015.8 hPa 0 C deg
1777743256 1013 hPa 21.4 C deg 34.2 % 1015.7 hPa 0 C deg
1777741420 1013 hPa 22.7 C deg 31.4 % 1015.7 hPa 0 C deg
1777735999 1013.2 hPa 28.1 C deg 20.9 % 1015.8 hPa 0 C deg
1777730529 1014.1 hPa 32.8 C deg 21.6 % 1016.7 hPa 0 C deg
1777728742 1014.2 hPa 32.5 C deg 23.6 % 1016.8 hPa 0 C deg
1777726918 1014.5 hPa 27.5 C deg 29.3 % 1017.1 hPa 0 C deg
1777723300 1015.1 hPa 24.7 C deg 35.4 % 1017.8 hPa 0 C deg
1777712409 1016.8 hPa 19.6 C deg 53.4 % 1019.5 hPa 0 C deg
1777710636 1017 hPa 18.5 C deg 56.4 % 1019.7 hPa 0 C deg
1777708790 1017.2 hPa 17.2 C deg 59.1 % 1020 hPa 0 C deg
1777701525 1018 hPa 11.5 C deg 64.6 % 1020.8 hPa 0 C deg
1777699714 1018 hPa 10.6 C deg 64.3 % 1020.8 hPa 0 C deg
1777697872 1018.2 hPa 10.2 C deg 63.7 % 1021 hPa 0 C deg
1777692432 1018.5 hPa 10.4 C deg 61.5 % 1021.3 hPa 0 C deg
1777686977 1019.5 hPa 11.3 C deg 59.4 % 1022.3 hPa 0 C deg
1777685154 1019.7 hPa 11.5 C deg 58.9 % 1022.5 hPa 0 C deg
1777683357 1020.1 hPa 11.7 C deg 58.1 % 1022.9 hPa 0 C deg
1777681532 1020.4 hPa 11.8 C deg 57.6 % 1023.2 hPa 0 C deg
1777679709 1020.7 hPa 12.1 C deg 56.7 % 1023.5 hPa 0 C deg
1777677905 1020.9 hPa 12.3 C deg 56 % 1023.7 hPa 0 C deg
1777676078 1021.3 hPa 12.5 C deg 55 % 1024.1 hPa 0 C deg
1777674268 1021.3 hPa 12.7 C deg 54 % 1024.1 hPa 0 C deg
*Used Equation Coefficients:
Press: 0, 1, 0
Temp.in: 0, 1, 0
Hum: 0, 1, 0
QNH: 0, 1, 0
Temp.out: 0, 1, 0

  • The parameter names for the analog channels will be Value1, Value2, Value3 (up to Value5) if station has not sent a PARAM-packet that specifies the parameter names for each analog channel.
  • Each analog value is a decimal number between 000 and 255 (according to APRS specifications). The receiver use the telemetry equation coefficientsto to restore the original sensor values. If no EQNS-packet with equation coefficients is sent we will show the values as is (this corresponds to the equation coefficients a=0, b=1 and c=0).
    The sent equation coefficients is used in the equation: a * value2 + b * value + c.
  • The units for the analog values will not be shown if station has not sent a UNIT-packet specifying what unit's to use.
  • The parameter names for the digital bits will be Bit1, Bit2, Bit3 (up to Bit8) if station has not sent a PARAM-packet that specifies the parameter names for each digital bit.
  • All bit labels will be named "On" if station has not sent a UNIT-packet that specifies the label of each bit.
  • A bit is considered to be On when the bit is 1 if station has not sent a BITS-packet that specifies another "Bit sense" (a BITS-packet specify the state of the bits that match the BIT labels)